createdAt,value
2023-03-28T00:01:22.240Z,101509.16
2023-03-28T00:03:49.947Z,101519.09
2023-03-28T00:06:18.518Z,101518.38
2023-03-28T00:08:47.505Z,101519.88
2023-03-28T00:11:20.400Z,101513.84
2023-03-28T00:13:49.249Z,101525.47
2023-03-28T00:16:17.005Z,101519.56
2023-03-28T00:18:45.069Z,101537.91
2023-03-28T00:21:23.214Z,101534.06
2023-03-28T00:23:52.530Z,101535.78
2023-03-28T00:26:24.585Z,101534.22
2023-03-28T00:28:52.787Z,101542.97
2023-03-28T00:31:20.481Z,101548.97
2023-03-28T00:33:48.306Z,101540.91
2023-03-28T00:36:18.559Z,101551.88
2023-03-28T00:38:46.713Z,101555.47
2023-03-28T00:41:16.008Z,101550.00
2023-03-28T00:43:46.848Z,101554.41
2023-03-28T00:46:20.111Z,101571.69
2023-03-28T00:48:53.433Z,101568.06
2023-03-28T00:51:24.197Z,101571.41
2023-03-28T00:53:54.166Z,101565.25
2023-03-28T00:56:24.338Z,101576.97
2023-03-28T00:58:53.748Z,101572.66
2023-03-28T01:01:21.766Z,101579.66
2023-03-28T01:03:56.240Z,101578.09
2023-03-28T01:06:25.969Z,101576.13
2023-03-28T01:08:54.225Z,101578.66
2023-03-28T01:11:22.303Z,101576.44
2023-03-28T01:13:52.028Z,101576.44
2023-03-28T01:16:22.586Z,101574.31
2023-03-28T01:18:52.429Z,101582.00
2023-03-28T01:21:49.666Z,101582.59
2023-03-28T01:24:50.523Z,101589.44
2023-03-28T01:27:23.112Z,101584.00
2023-03-28T01:30:26.536Z,101590.28
2023-03-28T01:33:24.234Z,101592.38
2023-03-28T01:36:34.101Z,101590.28
2023-03-28T01:39:12.787Z,101599.72
2023-03-28T01:41:46.957Z,101607.13
2023-03-28T01:44:25.024Z,101606.22
2023-03-28T01:47:00.170Z,101601.59
2023-03-28T01:49:37.210Z,101613.00
2023-03-28T01:52:14.339Z,101612.91
2023-03-28T01:54:52.999Z,101612.91
2023-03-28T01:57:25.904Z,101616.97
2023-03-28T02:00:01.730Z,101620.47
2023-03-28T02:02:37.912Z,101615.31
2023-03-28T02:05:10.166Z,101612.50
2023-03-28T02:07:46.234Z,101617.78
2023-03-28T02:10:17.632Z,101620.34
2023-03-28T02:12:49.585Z,101622.13
2023-03-28T02:15:20.420Z,101611.69
2023-03-28T02:17:53.825Z,101621.72
2023-03-28T02:20:26.392Z,101618.28
2023-03-28T02:22:59.137Z,101620.69
2023-03-28T02:25:28.542Z,101626.91
2023-03-28T02:28:02.506Z,101627.81
2023-03-28T02:30:30.203Z,101615.41
2023-03-28T02:33:00.610Z,101618.56
2023-03-28T02:35:33.330Z,101626.91
2023-03-28T02:38:08.602Z,101625.84
2023-03-28T02:40:47.737Z,101628.47
2023-03-28T02:43:34.046Z,101632.97
2023-03-28T02:46:10.351Z,101623.56
2023-03-28T02:48:54.167Z,101628.44
2023-03-28T02:51:30.150Z,101631.28
2023-03-28T02:54:08.463Z,101631.63
2023-03-28T02:56:45.204Z,101629.78
2023-03-28T02:59:18.944Z,101630.72
2023-03-28T03:01:47.062Z,101638.69
2023-03-28T03:04:17.196Z,101636.34
2023-03-28T03:06:45.408Z,101633.66
2023-03-28T03:09:13.456Z,101646.31
2023-03-28T03:11:42.454Z,101646.19
2023-03-28T03:14:10.281Z,101643.13
2023-03-28T03:16:38.673Z,101645.34
2023-03-28T03:19:07.568Z,101649.31
2023-03-28T03:21:36.397Z,101654.59
2023-03-28T03:24:04.556Z,101648.47
2023-03-28T03:26:32.656Z,101657.84
2023-03-28T03:29:02.944Z,101655.91
2023-03-28T03:31:32.072Z,101666.75
2023-03-28T03:34:01.858Z,101660.44
2023-03-28T03:36:31.652Z,101660.09
2023-03-28T03:38:59.529Z,101672.50
2023-03-28T03:41:27.375Z,101667.56
2023-03-28T03:43:55.041Z,101673.47
2023-03-28T03:46:24.069Z,101667.63
2023-03-28T03:48:51.725Z,101678.81
2023-03-28T03:51:19.416Z,101671.84
2023-03-28T03:53:50.471Z,101672.44
2023-03-28T03:56:18.365Z,101667.06
2023-03-28T03:58:46.386Z,101663.28
2023-03-28T04:01:14.757Z,101670.66
2023-03-28T04:03:44.935Z,101670.66
2023-03-28T04:06:12.654Z,101671.84
2023-03-28T04:08:40.388Z,101671.16
2023-03-28T04:11:10.549Z,101683.06
2023-03-28T04:13:38.743Z,101676.75
2023-03-28T04:16:07.368Z,101680.78
2023-03-28T04:18:35.535Z,101682.94
2023-03-28T04:21:04.844Z,101682.81
2023-03-28T04:23:33.965Z,101683.75
2023-03-28T04:26:02.968Z,101684.53
2023-03-28T04:28:31.316Z,101685.22
2023-03-28T04:30:59.122Z,101683.78
2023-03-28T04:33:28.004Z,101690.34
2023-03-28T04:36:00.271Z,101698.25
2023-03-28T04:38:31.730Z,101696.03
2023-03-28T04:41:00.893Z,101696.66
2023-03-28T04:43:29.340Z,101701.75
2023-03-28T04:45:57.918Z,101701.88
2023-03-28T04:48:27.591Z,101705.19
2023-03-28T04:50:56.070Z,101703.78
2023-03-28T04:53:24.065Z,101706.41
2023-03-28T04:55:53.286Z,101699.91
2023-03-28T04:58:23.197Z,101711.75
2023-03-28T05:00:51.123Z,101714.41
2023-03-28T05:03:20.503Z,101718.41
2023-03-28T05:05:49.645Z,101727.47
2023-03-28T05:08:19.741Z,101734.28
2023-03-28T05:10:48.002Z,101742.84
2023-03-28T05:13:18.579Z,101741.50
2023-03-28T05:15:48.301Z,101749.41
2023-03-28T05:18:16.402Z,101746.72
2023-03-28T05:20:44.122Z,101758.19
2023-03-28T05:23:11.840Z,101756.00
2023-03-28T05:25:39.503Z,101754.06
2023-03-28T05:28:07.317Z,101756.75
2023-03-28T05:30:38.455Z,101766.75
2023-03-28T05:33:07.568Z,101764.56
2023-03-28T05:35:35.309Z,101762.13
2023-03-28T05:38:03.064Z,101763.84
2023-03-28T05:40:31.505Z,101757.50
2023-03-28T05:42:59.333Z,101769.19
2023-03-28T05:45:27.127Z,101768.09
2023-03-28T05:47:56.956Z,101780.13
2023-03-28T05:50:26.305Z,101778.19
2023-03-28T05:52:54.137Z,101785.34
2023-03-28T05:55:22.146Z,101784.75
2023-03-28T05:57:49.810Z,101795.22
2023-03-28T06:00:19.384Z,101795.94
2023-03-28T06:02:50.366Z,101798.88
2023-03-28T06:05:19.521Z,101803.25
2023-03-28T06:07:47.279Z,101806.91
2023-03-28T06:10:16.540Z,101813.44
2023-03-28T06:12:44.245Z,101809.09
2023-03-28T06:15:12.544Z,101808.81
2023-03-28T06:17:40.340Z,101815.75
2023-03-28T06:20:09.844Z,101814.78
2023-03-28T06:22:39.702Z,101813.22
2023-03-28T06:25:08.202Z,101820.28
2023-03-28T06:27:36.205Z,101814.44
2023-03-28T06:30:05.651Z,101814.69
2023-03-28T06:32:33.369Z,101812.25
2023-03-28T06:35:01.044Z,101817.97
2023-03-28T06:37:28.752Z,101807.00
2023-03-28T06:39:57.846Z,101811.63
2023-03-28T06:42:25.522Z,101818.94
2023-03-28T06:44:53.342Z,101824.72
2023-03-28T06:47:21.004Z,101828.22
2023-03-28T06:49:48.616Z,101824.31
2023-03-28T06:52:16.750Z,101825.00
2023-03-28T06:54:45.996Z,101830.56
2023-03-28T06:57:16.878Z,101841.06
2023-03-28T06:59:44.741Z,101834.75
2023-03-28T07:02:13.171Z,101834.41
2023-03-28T07:04:41.142Z,101834.09
2023-03-28T07:07:09.419Z,101833.22
2023-03-28T07:09:37.589Z,101844.41
2023-03-28T07:12:05.984Z,101839.81
2023-03-28T07:14:35.351Z,101841.53
2023-03-28T07:17:03.158Z,101844.25
2023-03-28T07:19:31.069Z,101846.63
2023-03-28T07:21:58.816Z,101852.00
2023-03-28T07:24:26.842Z,101861.13
2023-03-28T07:27:01.233Z,101861.91
2023-03-28T07:29:41.280Z,101857.22
2023-03-28T07:32:08.940Z,101856.41
2023-03-28T07:34:36.601Z,101868.44
2023-03-28T07:37:05.203Z,101874.56
2023-03-28T07:39:32.989Z,101881.63
2023-03-28T07:42:00.694Z,101882.28
2023-03-28T07:44:28.409Z,101882.63
2023-03-28T07:46:59.159Z,101882.47
2023-03-28T07:49:27.135Z,101887.00
2023-03-28T07:51:54.974Z,101895.91
2023-03-28T07:54:24.350Z,101888.09
2023-03-28T07:56:52.504Z,101899.66
2023-03-28T07:59:20.308Z,101893.78
2023-03-28T08:01:47.935Z,101896.41
2023-03-28T08:04:17.018Z,101892.25
2023-03-28T08:06:45.638Z,101898.53
2023-03-28T08:09:16.017Z,101897.84
2023-03-28T08:11:45.629Z,101901.00
2023-03-28T08:14:15.339Z,101895.72
2023-03-28T08:16:44.252Z,101897.81
2023-03-28T08:19:12.256Z,101889.56
2023-03-28T08:21:41.447Z,101896.41
2023-03-28T08:24:12.864Z,101905.97
2023-03-28T08:26:43.312Z,101893.00
2023-03-28T08:29:11.556Z,101898.31
2023-03-28T08:31:39.503Z,101897.34
2023-03-28T08:34:07.131Z,101891.44
2023-03-28T08:36:34.871Z,101895.69
2023-03-28T08:39:05.203Z,101888.34
2023-03-28T08:41:55.017Z,101893.53
2023-03-28T08:44:53.227Z,101893.59
2023-03-28T08:47:26.474Z,101900.00
2023-03-28T08:50:01.429Z,101896.94
2023-03-28T08:52:30.369Z,101893.59
2023-03-28T08:55:04.967Z,101902.78
2023-03-28T08:57:34.772Z,101902.09
2023-03-28T09:00:13.069Z,101904.50
2023-03-28T09:02:41.185Z,101906.81
2023-03-28T09:05:25.199Z,101906.47
2023-03-28T09:07:59.857Z,101903.94
2023-03-28T09:10:39.324Z,101909.84
2023-03-28T09:13:25.194Z,101910.84
2023-03-28T09:16:12.707Z,101917.66
2023-03-28T09:18:58.513Z,101913.41
2023-03-28T09:21:38.005Z,101917.69
2023-03-28T09:24:19.372Z,101918.41
2023-03-28T09:26:56.153Z,101919.81
2023-03-28T09:29:27.860Z,101918.69
2023-03-28T09:32:00.988Z,101917.56
2023-03-28T09:34:34.780Z,101917.56
2023-03-28T09:37:14.204Z,101925.19
2023-03-28T09:39:44.911Z,101915.69
2023-03-28T09:42:19.778Z,101916.72
2023-03-28T09:44:59.496Z,101913.47
2023-03-28T09:47:27.492Z,101917.28
2023-03-28T09:50:05.614Z,101910.19
2023-03-28T09:52:37.805Z,101918.56
2023-03-28T09:55:06.235Z,101917.28
2023-03-28T09:58:04.082Z,101913.47
2023-03-28T10:00:39.219Z,101916.44
2023-03-28T10:03:08.222Z,101917.56
2023-03-28T10:05:40.069Z,101918.84
2023-03-28T10:08:23.504Z,101919.13
2023-03-28T10:11:01.668Z,101917.28
2023-03-28T10:13:37.829Z,101909.34
2023-03-28T10:16:06.521Z,101910.50
2023-03-28T10:18:34.937Z,101909.94
2023-03-28T10:21:12.261Z,101911.59
2023-03-28T10:23:44.249Z,101911.88
2023-03-28T10:26:14.093Z,101910.47
2023-03-28T10:28:44.248Z,101915.03
2023-03-28T10:31:23.497Z,101900.56
2023-03-28T10:33:54.093Z,101898.13
2023-03-28T10:36:31.373Z,101892.75
2023-03-28T10:38:59.863Z,101896.22
2023-03-28T10:41:31.249Z,101903.38
2023-03-28T10:44:01.548Z,101897.56
2023-03-28T10:46:32.918Z,101903.78
2023-03-28T10:49:05.304Z,101896.75
2023-03-28T10:51:34.395Z,101896.59
2023-03-28T10:54:31.298Z,101895.75
2023-03-28T10:57:06.709Z,101890.00
2023-03-28T10:59:49.748Z,101895.28
2023-03-28T11:02:42.269Z,101885.97
2023-03-28T11:05:23.934Z,101891.06
2023-03-28T11:08:01.056Z,101896.66
2023-03-28T11:10:38.253Z,101895.81
2023-03-28T11:13:14.756Z,101893.56
2023-03-28T11:15:55.069Z,101884.50
2023-03-28T11:18:34.733Z,101886.28
2023-03-28T11:21:16.559Z,101890.28
2023-03-28T11:23:46.428Z,101893.81
2023-03-28T11:26:17.983Z,101891.06
2023-03-28T11:28:59.665Z,101891.69
2023-03-28T11:31:33.934Z,101893.09
2023-03-28T11:34:06.911Z,101892.88
2023-03-28T11:36:38.942Z,101887.22
2023-03-28T11:39:14.429Z,101877.34
2023-03-28T11:41:44.618Z,101870.88
2023-03-28T11:44:19.339Z,101870.06
2023-03-28T11:47:00.282Z,101869.03
2023-03-28T11:49:37.114Z,101864.66
2023-03-28T11:52:09.648Z,101849.03
2023-03-28T11:54:42.613Z,101854.72
2023-03-28T11:57:17.140Z,101852.44
2023-03-28T11:59:51.564Z,101850.19
2023-03-28T12:02:40.870Z,101849.91
2023-03-28T12:05:22.897Z,101836.50
2023-03-28T12:07:56.581Z,101838.03
2023-03-28T12:10:27.290Z,101847.34
2023-03-28T12:13:05.616Z,101840.41
2023-03-28T12:15:42.945Z,101838.72
2023-03-28T12:18:19.706Z,101831.09
2023-03-28T12:20:56.254Z,101848.41
2023-03-28T12:23:34.529Z,101844.72
2023-03-28T12:26:12.466Z,101839.00
2023-03-28T12:28:46.770Z,101838.19
2023-03-28T12:31:22.576Z,101832.00
2023-03-28T12:34:00.423Z,101835.19
2023-03-28T12:36:34.345Z,101823.78
2023-03-28T12:39:12.371Z,101823.06
2023-03-28T12:41:42.943Z,101818.63
2023-03-28T12:44:14.955Z,101818.44
2023-03-28T12:46:46.995Z,101816.75
2023-03-28T12:49:22.578Z,101819.75
2023-03-28T12:51:54.636Z,101823.13
2023-03-28T12:54:25.940Z,101812.50
2023-03-28T12:57:04.783Z,101804.75
2023-03-28T12:59:45.836Z,101814.03
2023-03-28T13:02:17.209Z,101810.22
2023-03-28T13:04:55.001Z,101803.94
2023-03-28T13:07:28.171Z,101795.81
2023-03-28T13:10:07.291Z,101798.19
2023-03-28T13:12:52.847Z,101802.94
2023-03-28T13:15:28.336Z,101799.50
2023-03-28T13:18:38.666Z,101803.44
2023-03-28T13:21:08.094Z,101794.31
2023-03-28T13:23:45.698Z,101789.03
2023-03-28T13:26:13.871Z,101795.78
2023-03-28T13:28:45.562Z,101788.69
2023-03-28T13:31:21.387Z,101795.63
2023-03-28T13:33:53.027Z,101789.69
2023-03-28T13:36:24.923Z,101778.72
2023-03-28T13:39:01.130Z,101773.31
2023-03-28T13:41:55.139Z,101771.47
2023-03-28T13:44:25.951Z,101774.16
2023-03-28T13:46:54.610Z,101771.63
2023-03-28T13:49:32.372Z,101766.53
2023-03-28T13:52:05.037Z,101764.34
2023-03-28T13:54:32.802Z,101758.94
2023-03-28T13:57:06.795Z,101754.81
2023-03-28T13:59:37.107Z,101749.72
2023-03-28T14:02:17.578Z,101752.66
2023-03-28T14:04:52.851Z,101750.47
2023-03-28T14:07:29.333Z,101744.16
2023-03-28T14:09:58.082Z,101743.47
2023-03-28T14:12:29.851Z,101741.88
2023-03-28T14:14:59.683Z,101733.28
2023-03-28T14:17:32.411Z,101733.88
2023-03-28T14:20:04.751Z,101746.56
2023-03-28T14:22:49.005Z,101730.88
2023-03-28T14:25:26.359Z,101727.81
2023-03-28T14:27:56.933Z,101723.94
2023-03-28T14:30:26.771Z,101721.03
2023-03-28T14:32:59.073Z,101721.88
2023-03-28T14:35:29.671Z,101722.06
2023-03-28T14:38:00.897Z,101726.44
2023-03-28T14:40:34.740Z,101721.19
2023-03-28T14:43:05.370Z,101715.09
2023-03-28T14:45:37.592Z,101717.16
2023-03-28T14:48:09.998Z,101712.25
2023-03-28T14:50:40.082Z,101715.91
2023-03-28T14:53:13.389Z,101711.13
2023-03-28T14:55:42.027Z,101704.56
2023-03-28T14:58:13.597Z,101698.34
2023-03-28T15:00:44.959Z,101697.84
2023-03-28T15:03:17.042Z,101693.63
2023-03-28T15:05:47.569Z,101686.16
2023-03-28T15:08:28.040Z,101686.44
2023-03-28T15:10:56.881Z,101685.06
2023-03-28T15:13:27.553Z,101674.75
2023-03-28T15:15:56.887Z,101677.16
2023-03-28T15:18:29.156Z,101670.03
2023-03-28T15:20:59.788Z,101674.88
2023-03-28T15:23:32.992Z,101674.41
2023-03-28T15:26:04.203Z,101669.53
2023-03-28T15:28:32.512Z,101661.75
2023-03-28T15:31:03.893Z,101665.13
2023-03-28T15:33:34.860Z,101657.00
2023-03-28T15:36:07.311Z,101656.47
2023-03-28T15:38:40.725Z,101642.00
2023-03-28T15:41:12.105Z,101637.31
2023-03-28T15:43:42.435Z,101633.78
2023-03-28T15:46:13.093Z,101625.34
2023-03-28T15:48:43.339Z,101630.41
2023-03-28T15:51:16.372Z,101629.34
2023-03-28T15:53:47.529Z,101626.28
2023-03-28T15:56:23.034Z,101627.44
2023-03-28T15:58:50.913Z,101634.66
2023-03-28T16:01:25.222Z,101623.22
2023-03-28T16:04:13.273Z,101622.16
2023-03-28T16:06:42.667Z,101616.31
2023-03-28T16:09:21.795Z,101619.88
2023-03-28T16:11:56.649Z,101620.19
2023-03-28T16:14:24.614Z,101620.16
2023-03-28T16:16:55.344Z,101618.72
2023-03-28T16:19:24.925Z,101620.41
2023-03-28T16:21:53.548Z,101613.66
2023-03-28T16:24:22.573Z,101606.56
2023-03-28T16:26:50.458Z,101607.28
2023-03-28T16:29:18.200Z,101612.47
2023-03-28T16:31:45.907Z,101612.28
2023-03-28T16:34:13.913Z,101609.38
2023-03-28T16:36:41.868Z,101618.31
2023-03-28T16:39:09.528Z,101606.72
2023-03-28T16:41:38.554Z,101616.50
2023-03-28T16:44:06.276Z,101612.94
2023-03-28T16:46:34.277Z,101617.25
2023-03-28T16:49:01.954Z,101610.16
2023-03-28T16:51:29.595Z,101613.81
2023-03-28T16:53:57.252Z,101611.97
2023-03-28T16:56:26.839Z,101613.66
2023-03-28T16:58:55.918Z,101605.91
2023-03-28T17:01:23.716Z,101602.47
2023-03-28T17:03:52.637Z,101603.53
2023-03-28T17:06:20.691Z,101606.56
2023-03-28T17:08:48.654Z,101597.44
2023-03-28T17:11:16.805Z,101590.84
2023-03-28T17:13:47.447Z,101586.91
2023-03-28T17:16:16.880Z,101581.22
2023-03-28T17:18:44.703Z,101582.38
2023-03-28T17:21:14.924Z,101573.41
2023-03-28T17:23:44.442Z,101573.78
2023-03-28T17:26:12.884Z,101579.34
2023-03-28T17:28:45.341Z,101571.31
2023-03-28T17:31:15.129Z,101563.97
2023-03-28T17:33:44.571Z,101559.09
2023-03-28T17:36:22.032Z,101550.50
2023-03-28T17:38:50.550Z,101550.38
2023-03-28T17:41:18.584Z,101546.81
2023-03-28T17:43:46.682Z,101549.69
2023-03-28T17:46:14.802Z,101542.59
2023-03-28T17:48:44.003Z,101540.38
2023-03-28T17:51:12.635Z,101532.59
2023-03-28T17:53:41.669Z,101530.97
2023-03-28T17:56:11.206Z,101527.09
2023-03-28T17:58:39.128Z,101532.16
2023-03-28T18:01:10.632Z,101529.63
2023-03-28T18:03:38.996Z,101532.50
2023-03-28T18:06:09.765Z,101536.34
2023-03-28T18:08:37.628Z,101534.13
2023-03-28T18:11:07.251Z,101526.72
2023-03-28T18:13:35.817Z,101538.34
2023-03-28T18:16:05.090Z,101533.13
2023-03-28T18:18:33.538Z,101524.69
2023-03-28T18:21:01.323Z,101529.44
2023-03-28T18:23:30.784Z,101518.13
2023-03-28T18:25:58.811Z,101515.25
2023-03-28T18:28:28.169Z,101521.50
2023-03-28T18:30:57.236Z,101528.91
2023-03-28T18:33:24.939Z,101522.34
2023-03-28T18:35:52.781Z,101522.16
2023-03-28T18:38:23.209Z,101529.97
2023-03-28T18:40:53.946Z,101530.97
2023-03-28T18:43:22.398Z,101521.69
2023-03-28T18:45:55.058Z,101527.72
2023-03-28T18:48:22.990Z,101517.94
2023-03-28T18:50:51.003Z,101517.94
2023-03-28T18:53:18.599Z,101504.63
2023-03-28T18:55:46.766Z,101503.78
2023-03-28T18:58:16.090Z,101512.06
2023-03-28T19:00:43.888Z,101505.28
2023-03-28T19:03:17.247Z,101503.91
2023-03-28T19:05:45.384Z,101499.03
2023-03-28T19:08:13.152Z,101486.91
2023-03-28T19:10:46.770Z,101490.13
2023-03-28T19:13:16.269Z,101495.34
2023-03-28T19:15:44.045Z,101488.44
2023-03-28T19:18:12.174Z,101492.66
2023-03-28T19:20:40.118Z,101478.53
2023-03-28T19:23:07.904Z,101473.75
2023-03-28T19:25:36.481Z,101467.31
2023-03-28T19:28:04.291Z,101472.22
2023-03-28T19:30:33.511Z,101472.38
2023-03-28T19:33:01.181Z,101466.81
2023-03-28T19:35:29.405Z,101464.94
2023-03-28T19:37:58.319Z,101464.63
2023-03-28T19:40:26.388Z,101461.59
2023-03-28T19:42:56.415Z,101457.50
2023-03-28T19:45:24.303Z,101461.22
2023-03-28T19:47:53.582Z,101454.31
2023-03-28T19:50:21.258Z,101444.69
2023-03-28T19:52:49.816Z,101452.78
2023-03-28T19:55:18.279Z,101438.59
2023-03-28T19:57:46.162Z,101446.31
2023-03-28T20:00:14.932Z,101448.00
2023-03-28T20:02:43.029Z,101445.13
2023-03-28T20:05:13.863Z,101441.22
2023-03-28T20:07:42.031Z,101438.81
2023-03-28T20:10:10.719Z,101435.91
2023-03-28T20:12:39.998Z,101435.25
2023-03-28T20:15:09.681Z,101435.25
2023-03-28T20:17:37.780Z,101426.69
2023-03-28T20:20:07.317Z,101432.22
2023-03-28T20:22:36.499Z,101421.94
2023-03-28T20:25:04.945Z,101430.41
2023-03-28T20:27:32.978Z,101431.06
2023-03-28T20:30:00.824Z,101420.66
2023-03-28T20:32:28.581Z,101425.22
2023-03-28T20:34:56.641Z,101421.66
2023-03-28T20:37:24.359Z,101418.50
2023-03-28T20:39:55.149Z,101409.88
2023-03-28T20:42:24.234Z,101411.03
2023-03-28T20:44:51.814Z,101416.75
2023-03-28T20:47:21.972Z,101411.22
2023-03-28T20:49:56.211Z,101409.19
2023-03-28T20:52:24.865Z,101404.47
2023-03-28T20:54:54.264Z,101398.72
2023-03-28T20:57:25.463Z,101395.22
2023-03-28T20:59:55.175Z,101396.84
2023-03-28T21:02:26.162Z,101395.13
2023-03-28T21:04:55.179Z,101387.59
2023-03-28T21:07:23.214Z,101382.72
2023-03-28T21:09:50.954Z,101378.88
2023-03-28T21:12:20.030Z,101376.50
2023-03-28T21:14:47.643Z,101373.44
2023-03-28T21:17:21.957Z,101367.41
2023-03-28T21:19:49.596Z,101371.78
2023-03-28T21:22:17.262Z,101364.69
2023-03-28T21:24:44.939Z,101365.50
2023-03-28T21:27:12.554Z,101371.59
2023-03-28T21:29:41.823Z,101364.03
2023-03-28T21:32:09.631Z,101368.06
2023-03-28T21:34:37.845Z,101362.50
2023-03-28T21:37:05.921Z,101360.66
2023-03-28T21:39:33.585Z,101354.59
2023-03-28T21:42:01.218Z,101353.56
2023-03-28T21:44:30.714Z,101351.22
2023-03-28T21:46:59.825Z,101341.16
2023-03-28T21:49:27.500Z,101336.75
2023-03-28T21:51:55.172Z,101339.09
2023-03-28T21:54:22.777Z,101341.13
2023-03-28T21:56:50.599Z,101338.44
2023-03-28T21:59:18.462Z,101335.38
2023-03-28T22:01:46.138Z,101332.34
2023-03-28T22:04:15.124Z,101337.72
2023-03-28T22:06:42.753Z,101336.19
2023-03-28T22:09:10.757Z,101320.22
2023-03-28T22:11:39.440Z,101319.88
2023-03-28T22:14:07.479Z,101325.75
2023-03-28T22:16:37.344Z,101326.25
2023-03-28T22:19:05.777Z,101317.88
2023-03-28T22:21:34.868Z,101309.44
2023-03-28T22:24:04.226Z,101310.94
2023-03-28T22:26:31.935Z,101306.66
2023-03-28T22:28:59.994Z,101309.56
2023-03-28T22:31:28.781Z,101296.44
2023-03-28T22:33:56.486Z,101293.91
2023-03-28T22:36:24.286Z,101297.81
2023-03-28T22:38:55.462Z,101290.56
2023-03-28T22:41:23.748Z,101288.53
2023-03-28T22:43:51.440Z,101283.84
2023-03-28T22:46:20.347Z,101279.28
2023-03-28T22:48:54.354Z,101279.63
2023-03-28T22:51:25.207Z,101279.47
2023-03-28T22:53:54.811Z,101271.72
2023-03-28T22:56:24.133Z,101277.94
2023-03-28T22:58:53.928Z,101275.06
2023-03-28T23:01:22.976Z,101272.34
2023-03-28T23:03:51.861Z,101268.66
2023-03-28T23:06:20.398Z,101262.91
2023-03-28T23:08:48.252Z,101260.22
2023-03-28T23:11:17.282Z,101259.06
2023-03-28T23:13:45.021Z,101260.22
2023-03-28T23:16:12.699Z,101271.00
2023-03-28T23:18:40.442Z,101266.97
2023-03-28T23:21:08.733Z,101262.28
2023-03-28T23:23:36.645Z,101260.41
2023-03-28T23:26:04.478Z,101260.09
2023-03-28T23:28:33.545Z,101259.44
2023-03-28T23:31:02.112Z,101258.59
2023-03-28T23:33:29.830Z,101256.75
2023-03-28T23:35:57.598Z,101258.25
2023-03-28T23:38:25.445Z,101251.53
2023-03-28T23:40:53.092Z,101250.00
2023-03-28T23:43:21.425Z,101251.97
2023-03-28T23:45:50.330Z,101251.50
2023-03-28T23:48:18.086Z,101248.63
2023-03-28T23:50:45.839Z,101238.19
2023-03-28T23:53:13.841Z,101235.69
2023-03-28T23:55:41.647Z,101242.44
2023-03-28T23:58:09.455Z,101240.38
